Time;durP1;ratioP1;P1;durP2;ratioP2;P2;SDS_P1;SDS_P2;PMS_P1;PMS_P2;Temp;Humidity;BMP_temperature;BMP_pressure;BME280_temperature;BME280_humidity;BME280_pressure;Samples;Min_cycle;Max_cycle;Signal;HPM_P1;HPM_P2
2023/01/13 00:01:25;;;;;;;1.00;0.90;;;6.80;99.90;;;;;;5069895;28;20048;-74
2023/01/13 00:03:51;;;;;;;0.80;0.68;;;6.80;99.90;;;;;;5066942;28;20032;-74
2023/01/13 00:06:20;;;;;;;0.90;0.90;;;6.80;99.90;;;;;;5071072;28;20032;-74
2023/01/13 00:08:49;;;;;;;0.88;0.82;;;6.80;99.90;;;;;;5075365;28;20036;-75
2023/01/13 00:11:16;;;;;;;1.25;0.90;;;6.80;99.90;;;;;;5069984;28;20063;-74
2023/01/13 00:13:41;;;;;;;1.35;0.98;;;6.90;99.90;;;;;;5071954;28;20024;-74
2023/01/13 00:16:14;;;;;;;3.35;0.95;;;6.80;99.90;;;;;;5069248;28;20105;-74
2023/01/13 00:18:40;;;;;;;0.77;0.77;;;6.90;99.90;;;;;;5066261;28;20032;-74
2023/01/13 00:21:13;;;;;;;0.73;0.73;;;6.80;99.90;;;;;;5072633;28;20033;-74
2023/01/13 00:23:39;;;;;;;1.15;0.88;;;6.80;99.90;;;;;;5069350;28;20035;-74
2023/01/13 00:26:08;;;;;;;2.40;0.80;;;6.80;99.90;;;;;;5070864;28;20054;-74
2023/01/13 00:28:34;;;;;;;0.80;0.80;;;6.80;99.90;;;;;;5065831;28;20064;-74
2023/01/13 00:31:07;;;;;;;0.63;0.60;;;6.80;99.90;;;;;;5066492;28;20079;-74
2023/01/13 00:33:32;;;;;;;2.30;0.90;;;6.70;99.90;;;;;;5071245;28;20497;-74
2023/01/13 00:36:00;;;;;;;0.65;0.63;;;6.80;99.90;;;;;;5069751;28;20040;-74
2023/01/13 00:38:26;;;;;;;0.80;0.77;;;6.80;99.90;;;;;;5068386;28;20055;-74
2023/01/13 00:41:00;;;;;;;1.23;0.90;;;6.90;99.90;;;;;;5069576;28;20047;-74
2023/01/13 00:43:27;;;;;;;0.88;0.73;;;6.90;99.90;;;;;;5068952;28;20053;-74
2023/01/13 00:45:54;;;;;;;0.95;0.95;;;6.90;99.90;;;;;;5065434;28;20148;-74
2023/01/13 00:48:20;;;;;;;0.95;0.95;;;6.90;99.90;;;;;;5070290;28;20029;-74
2023/01/13 00:50:57;;;;;;;0.60;0.60;;;6.90;99.90;;;;;;5068821;28;20042;-74
2023/01/13 00:53:24;;;;;;;0.70;0.70;;;6.80;99.90;;;;;;5066523;28;20037;-74
2023/01/13 00:56:01;;;;;;;1.70;1.15;;;6.90;99.90;;;;;;5071993;28;20024;-75
2023/01/13 00:58:27;;;;;;;1.75;0.98;;;7.00;99.90;;;;;;5049281;28;20047;-74
2023/01/13 01:00:53;;;;;;;0.75;0.70;;;7.00;99.90;;;;;;5086133;28;20066;-75
2023/01/13 01:03:19;;;;;;;2.47;0.70;;;7.10;99.90;;;;;;5090189;28;20044;-74
2023/01/13 01:05:45;;;;;;;0.73;0.70;;;7.10;99.90;;;;;;5088556;28;20044;-74
2023/01/13 01:08:11;;;;;;;1.33;0.95;;;7.10;99.90;;;;;;5089472;28;20051;-74
2023/01/13 01:10:36;;;;;;;0.82;0.82;;;7.10;99.90;;;;;;5089598;28;20049;-75
2023/01/13 01:13:02;;;;;;;0.60;0.60;;;7.00;99.90;;;;;;5087311;28;20051;-75
2023/01/13 01:15:27;;;;;;;2.22;0.77;;;7.00;99.90;;;;;;5090605;28;20039;-74
2023/01/13 01:17:53;;;;;;;2.95;0.90;;;7.10;99.90;;;;;;5085002;28;20025;-75
2023/01/13 01:20:18;;;;;;;0.93;0.60;;;7.10;99.90;;;;;;5088498;28;20032;-75
2023/01/13 01:22:44;;;;;;;2.55;0.90;;;7.10;99.90;;;;;;5091400;28;20062;-74
2023/01/13 01:25:09;;;;;;;0.52;0.52;;;7.10;99.90;;;;;;5089152;28;20024;-74
2023/01/13 01:27:35;;;;;;;2.10;1.10;;;7.20;99.90;;;;;;5091204;28;20040;-75
2023/01/13 01:30:00;;;;;;;0.60;0.60;;;7.20;99.90;;;;;;5092303;28;20039;-75
2023/01/13 01:32:26;;;;;;;0.75;0.73;;;7.20;99.90;;;;;;5087571;28;20121;-74
2023/01/13 01:34:52;;;;;;;0.43;0.43;;;7.20;99.90;;;;;;5086298;28;20036;-74
2023/01/13 01:37:17;;;;;;;0.63;0.63;;;7.20;99.90;;;;;;5087041;28;20120;-74
2023/01/13 01:39:43;;;;;;;0.98;0.98;;;7.20;99.90;;;;;;5092188;28;20043;-74
2023/01/13 01:45:13;;;;;;;0.60;0.60;;;7.10;99.90;;;;;;5090795;28;20093;-75
2023/01/13 01:47:40;;;;;;;1.73;0.70;;;7.20;99.90;;;;;;5086877;28;20859;-74
2023/01/13 01:50:06;;;;;;;0.70;0.70;;;7.10;99.90;;;;;;5084715;28;20090;-75
2023/01/13 01:52:37;;;;;;;0.88;0.70;;;7.20;99.90;;;;;;5089812;28;20047;-74
2023/01/13 01:55:17;;;;;;;0.80;0.80;;;7.20;99.90;;;;;;5086700;28;20063;-74
2023/01/13 01:57:56;;;;;;;1.05;0.80;;;7.10;99.90;;;;;;5091699;28;20059;-75
2023/01/13 02:00:24;;;;;;;0.80;0.80;;;7.20;99.90;;;;;;5086552;28;20362;-75
2023/01/13 02:02:50;;;;;;;1.60;0.98;;;7.20;99.90;;;;;;5087065;28;20067;-75
2023/01/13 02:05:17;;;;;;;0.82;0.73;;;7.20;99.90;;;;;;5088779;28;20032;-74
2023/01/13 02:07:46;;;;;;;2.83;0.77;;;7.20;99.90;;;;;;5091558;28;20043;-75
2023/01/13 02:10:15;;;;;;;0.70;0.70;;;7.20;99.90;;;;;;5090188;28;20052;-74
2023/01/13 02:12:43;;;;;;;1.27;0.90;;;7.10;99.90;;;;;;5089732;28;20040;-75
2023/01/13 02:15:13;;;;;;;0.68;0.68;;;7.20;99.90;;;;;;5087545;28;20032;-74
2023/01/13 02:17:51;;;;;;;1.10;1.00;;;7.20;99.90;;;;;;5090591;28;20083;-74
2023/01/13 02:20:20;;;;;;;;;;;7.20;99.90;;;;;;5086611;28;20032;-75
2023/01/13 02:23:04;;;;;;;1.48;0.57;;;7.20;99.90;;;;;;5088563;28;20325;-74
2023/01/13 02:25:57;;;;;;;1.63;0.77;;;7.20;99.90;;;;;;5087584;28;20020;-74
2023/01/13 02:28:38;;;;;;;1.02;0.90;;;7.20;99.90;;;;;;5087457;28;20043;-75
2023/01/13 02:34:30;;;;;;;0.80;0.80;;;7.30;99.90;;;;;;5083743;28;20034;-74
2023/01/13 02:37:06;;;;;;;2.80;0.63;;;7.40;99.90;;;;;;5087625;28;20017;-75
2023/01/13 02:39:44;;;;;;;1.00;1.00;;;7.40;99.90;;;;;;5090952;28;20038;-75
2023/01/13 02:45:49;;;;;;;0.60;0.60;;;7.40;99.90;;;;;;5085034;28;20042;-74
2023/01/13 02:48:17;;;;;;;0.57;0.47;;;7.40;99.90;;;;;;5088751;28;20020;-75
2023/01/13 02:50:57;;;;;;;0.88;0.88;;;7.50;99.90;;;;;;5081489;28;21043;-74
2023/01/13 02:53:34;;;;;;;2.25;0.88;;;7.50;99.90;;;;;;5091885;28;20044;-74
2023/01/13 02:56:03;;;;;;;0.50;0.50;;;7.50;99.90;;;;;;5086574;28;20023;-74
2023/01/13 02:58:31;;;;;;;1.17;0.75;;;7.50;99.90;;;;;;5086879;28;20024;-74
2023/01/13 03:00:56;;;;;;;0.70;0.70;;;7.60;99.90;;;;;;5087367;28;20047;-75
2023/01/13 03:03:22;;;;;;;0.52;0.52;;;7.60;99.90;;;;;;5088106;28;20040;-74
2023/01/13 03:05:52;;;;;;;0.80;0.80;;;7.50;99.90;;;;;;5088407;28;20037;-74
2023/01/13 03:08:26;;;;;;;0.60;0.60;;;7.60;99.90;;;;;;5090906;28;20048;-74
2023/01/13 03:11:00;;;;;;;0.75;0.75;;;7.60;99.90;;;;;;5088284;28;21112;-74
2023/01/13 03:13:47;;;;;;;0.70;0.70;;;7.60;99.90;;;;;;5089683;28;20044;-74
2023/01/13 03:16:34;;;;;;;0.60;0.60;;;7.60;99.90;;;;;;5087415;28;20064;-74
2023/01/13 03:19:21;;;;;;;0.63;0.63;;;7.70;99.90;;;;;;5086538;28;20035;-75
2023/01/13 03:21:55;;;;;;;1.20;0.82;;;7.70;99.20;;;;;;5085916;28;20035;-74
2023/01/13 03:24:52;;;;;;;0.82;0.70;;;7.70;99.00;;;;;;5085268;28;20074;-75
2023/01/13 03:27:25;;;;;;;0.60;0.60;;;7.80;97.80;;;;;;5085843;28;20024;-74
2023/01/13 03:30:02;;;;;;;0.40;0.40;;;7.80;98.70;;;;;;5081347;28;20025;-74
2023/01/13 03:32:33;;;;;;;0.45;0.45;;;7.80;98.50;;;;;;5080053;28;20036;-74
2023/01/13 03:35:24;;;;;;;6.63;0.88;;;7.80;97.30;;;;;;5092336;28;20042;-74
2023/01/13 03:37:58;;;;;;;0.90;0.90;;;7.80;98.60;;;;;;5080431;28;20040;-75
2023/01/13 03:40:32;;;;;;;0.90;0.73;;;7.90;96.30;;;;;;5088845;28;20040;-77
2023/01/13 03:45:58;;;;;;;1.95;0.90;;;7.90;96.90;;;;;;5086673;28;20022;-75
2023/01/13 03:48:27;;;;;;;0.95;0.70;;;7.90;97.10;;;;;;5088113;28;20048;-75
2023/01/13 03:50:56;;;;;;;0.55;0.40;;;7.90;97.00;;;;;;5087581;28;20046;-74
2023/01/13 03:53:57;;;;;;;0.47;0.47;;;8.00;96.30;;;;;;5091452;28;20039;-75
2023/01/13 03:56:26;;;;;;;0.95;0.65;;;8.00;97.00;;;;;;5090098;28;20130;-75
2023/01/13 03:58:53;;;;;;;0.60;0.60;;;7.90;96.60;;;;;;5096205;28;20052;-75
2023/01/13 04:01:46;;;;;;;5.28;1.02;;;7.90;97.40;;;;;;5090217;28;20045;-75
2023/01/13 04:04:20;;;;;;;0.50;0.50;;;7.90;97.20;;;;;;5093441;28;20033;-74
2023/01/13 04:07:22;;;;;;;0.98;0.60;;;8.00;98.10;;;;;;5094888;28;20039;-74
2023/01/13 04:09:55;;;;;;;0.65;0.60;;;7.90;96.80;;;;;;5091026;28;20047;-75
2023/01/13 04:12:59;;;;;;;0.82;0.73;;;8.00;96.70;;;;;;5092083;28;20025;-76
2023/01/13 04:15:19;;;;;;;0.60;0.60;;;8.00;98.40;;;;;;5089588;28;20025;-75
2023/01/13 04:17:45;;;;;;;0.50;0.50;;;8.00;97.40;;;;;;5094296;28;20032;-75
2023/01/13 04:20:10;;;;;;;0.57;0.57;;;8.10;97.30;;;;;;5090637;28;20044;-75
2023/01/13 04:22:36;;;;;;;0.70;0.70;;;8.10;97.90;;;;;;5091635;28;20042;-75
2023/01/13 04:25:02;;;;;;;0.52;0.52;;;8.10;98.00;;;;;;5092979;28;20147;-75
2023/01/13 04:27:27;;;;;;;0.73;0.60;;;8.10;96.90;;;;;;5088353;28;20028;-75
2023/01/13 04:29:53;;;;;;;0.55;0.55;;;8.10;98.20;;;;;;5093537;28;20045;-75
2023/01/13 04:32:18;;;;;;;0.45;0.45;;;8.10;97.70;;;;;;5090725;28;20052;-75
2023/01/13 04:34:44;;;;;;;1.77;1.05;;;8.20;97.90;;;;;;5091157;28;20036;-75
2023/01/13 04:37:10;;;;;;;1.25;0.55;;;8.20;97.70;;;;;;5090201;28;20024;-75
2023/01/13 04:39:36;;;;;;;0.50;0.50;;;8.20;98.10;;;;;;5090846;28;20032;-75
2023/01/13 04:42:01;;;;;;;0.50;0.50;;;8.20;97.90;;;;;;5087480;28;20031;-77
2023/01/13 04:44:33;;;;;;;1.45;0.60;;;8.30;97.40;;;;;;5093452;28;20051;-76
2023/01/13 04:47:00;;;;;;;0.60;0.60;;;8.30;97.70;;;;;;5091147;28;20032;-75
2023/01/13 04:49:26;;;;;;;0.68;0.68;;;8.30;97.40;;;;;;5090167;28;20111;-74
2023/01/13 04:51:52;;;;;;;0.52;0.52;;;8.30;97.70;;;;;;5089510;28;20012;-75
2023/01/13 04:54:17;;;;;;;1.02;0.98;;;8.40;97.40;;;;;;5088357;28;20025;-75
2023/01/13 04:56:43;;;;;;;0.75;0.75;;;8.30;98.20;;;;;;5092235;28;20037;-75
2023/01/13 04:59:10;;;;;;;0.60;0.60;;;8.30;97.60;;;;;;5088176;28;20025;-74
2023/01/13 05:01:36;;;;;;;0.90;0.70;;;8.40;98.20;;;;;;5086865;28;20098;-75
2023/01/13 05:04:02;;;;;;;0.50;0.50;;;8.40;98.20;;;;;;5094580;28;20399;-74
2023/01/13 05:06:28;;;;;;;2.65;0.88;;;8.50;98.10;;;;;;5083247;28;20043;-74
2023/01/13 05:08:54;;;;;;;2.10;0.85;;;8.50;97.60;;;;;;5095954;28;20031;-76
2023/01/13 05:16:59;;;;;;;0.50;0.50;;;8.60;97.80;;;;;;5078900;28;20068;-75
2023/01/13 05:19:31;;;;;;;0.40;0.40;;;8.60;98.10;;;;;;5082286;28;20147;-75
2023/01/13 05:27:27;;;;;;;1.55;0.80;;;8.50;99.20;;;;;;5091657;28;20019;-76
2023/01/13 05:29:53;;;;;;;1.65;0.60;;;8.50;99.10;;;;;;5086687;28;20039;-76
2023/01/13 05:32:20;;;;;;;0.50;0.50;;;8.60;98.40;;;;;;5086249;28;20378;-75
2023/01/13 05:34:45;;;;;;;1.08;0.70;;;8.50;99.10;;;;;;5094443;28;20087;-77
2023/01/13 05:37:12;;;;;;;0.60;0.60;;;8.60;98.50;;;;;;5088720;28;20040;-75
2023/01/13 05:45:14;;;;;;;0.65;0.65;;;8.50;98.90;;;;;;5085292;28;20122;-76
2023/01/13 05:47:40;;;;;;;1.67;0.73;;;8.50;99.00;;;;;;5090867;28;20027;-75
2023/01/13 05:50:06;;;;;;;1.52;0.60;;;8.50;99.70;;;;;;5092730;28;20096;-76
2023/01/13 05:52:32;;;;;;;0.60;0.60;;;8.50;99.90;;;;;;5093947;28;20033;-75
2023/01/13 05:54:57;;;;;;;0.50;0.50;;;8.60;99.20;;;;;;5085313;28;20054;-76
2023/01/13 05:57:23;;;;;;;0.57;0.57;;;8.60;99.60;;;;;;5094430;28;20036;-76
2023/01/13 05:59:48;;;;;;;1.08;0.85;;;8.50;99.90;;;;;;5079023;28;20060;-77
2023/01/13 06:02:14;;;;;;;0.55;0.52;;;8.50;99.90;;;;;;5087706;28;20104;-76
2023/01/13 06:04:39;;;;;;;0.57;0.57;;;8.60;99.90;;;;;;5084765;28;20063;-75
2023/01/13 06:07:05;;;;;;;0.50;0.50;;;8.60;99.90;;;;;;5093131;28;20100;-76
2023/01/13 06:09:31;;;;;;;1.35;0.80;;;8.50;99.90;;;;;;5082853;28;20044;-75
2023/01/13 06:12:33;;;;;;;1.25;0.80;;;8.50;99.90;;;;;;5087357;28;20104;-76
2023/01/13 06:14:58;;;;;;;0.50;0.50;;;8.60;99.90;;;;;;5086547;28;20090;-76
2023/01/13 06:17:24;;;;;;;0.60;0.60;;;8.50;99.90;;;;;;5090028;28;20024;-75
2023/01/13 06:19:50;;;;;;;1.35;0.70;;;8.50;99.90;;;;;;5088945;28;20069;-75
2023/01/13 06:22:19;;;;;;;0.75;0.70;;;8.60;99.90;;;;;;5091319;28;20024;-75
2023/01/13 06:24:45;;;;;;;0.75;0.50;;;8.60;99.90;;;;;;5088304;28;20025;-76
2023/01/13 06:27:11;;;;;;;4.32;2.75;;;8.50;99.90;;;;;;5085964;28;20036;-76
2023/01/13 06:29:37;;;;;;;0.60;0.60;;;8.50;99.90;;;;;;5089557;28;20074;-75
2023/01/13 06:32:09;;;;;;;0.57;0.57;;;8.50;99.90;;;;;;5093101;28;20138;-75
2023/01/13 06:34:35;;;;;;;0.90;0.90;;;8.50;99.90;;;;;;5083459;28;20131;-75
2023/01/13 06:37:02;;;;;;;0.90;0.88;;;8.60;99.90;;;;;;5082080;28;20016;-76
2023/01/13 06:39:30;;;;;;;4.63;0.80;;;8.60;99.90;;;;;;5088055;28;20065;-75
2023/01/13 06:44:41;;;;;;;3.63;1.85;;;8.50;99.90;;;;;;5099139;28;20058;-76
2023/01/13 06:47:12;;;;;;;2.08;1.58;;;8.50;99.90;;;;;;5089056;28;20031;-76
2023/01/13 06:49:38;;;;;;;9.45;4.55;;;8.50;99.90;;;;;;5099413;28;20032;-76
2023/01/13 06:52:04;;;;;;;3.13;1.85;;;8.50;99.90;;;;;;5086487;28;20097;-75
2023/01/13 06:54:30;;;;;;;7.38;3.63;;;8.50;99.90;;;;;;5087511;28;20025;-75
2023/01/13 06:56:55;;;;;;;5.60;2.80;;;8.50;99.90;;;;;;5086570;28;20045;-75
2023/01/13 06:59:21;;;;;;;1.65;1.27;;;8.40;99.90;;;;;;5085526;28;20048;-75
2023/01/13 07:01:47;;;;;;;5.47;2.53;;;8.60;99.90;;;;;;5081034;28;20029;-76
2023/01/13 07:04:12;;;;;;;6.85;3.47;;;8.50;99.90;;;;;;5088151;28;20094;-75
2023/01/13 07:06:38;;;;;;;3.10;2.28;;;8.60;99.90;;;;;;5086462;28;20021;-76
2023/01/13 07:09:04;;;;;;;4.85;2.47;;;8.60;99.90;;;;;;5084616;28;20021;-76
2023/01/13 07:11:29;;;;;;;1.52;1.20;;;8.60;99.90;;;;;;5081597;28;20067;-76
2023/01/13 07:16:39;;;;;;;0.52;0.52;;;8.60;99.90;;;;;;5084954;28;20409;-76
2023/01/13 07:19:05;;;;;;;0.60;0.60;;;8.60;99.90;;;;;;5091065;28;20028;-76
2023/01/13 07:21:33;;;;;;;1.52;0.85;;;8.50;99.90;;;;;;5081463;28;20038;-76
2023/01/13 07:23:58;;;;;;;0.80;0.80;;;8.60;99.90;;;;;;5086939;28;20244;-76
2023/01/13 07:26:24;;;;;;;0.63;0.60;;;8.50;99.90;;;;;;5087058;28;20048;-76
2023/01/13 07:28:49;;;;;;;0.80;0.80;;;8.40;99.90;;;;;;5089000;28;20024;-75
2023/01/13 07:31:19;;;;;;;0.60;0.60;;;8.40;99.90;;;;;;5082357;28;20053;-76
2023/01/13 07:33:45;;;;;;;0.73;0.73;;;8.40;99.90;;;;;;5091025;28;20028;-75
2023/01/13 07:36:11;;;;;;;0.50;0.50;;;8.40;99.90;;;;;;5089413;28;20047;-75
2023/01/13 07:38:38;;;;;;;3.38;0.73;;;8.30;99.90;;;;;;5089217;28;20040;-76
2023/01/13 07:43:50;;;;;;;0.82;0.82;;;8.40;99.90;;;;;;5092214;28;20027;-76
2023/01/13 07:46:17;;;;;;;0.80;0.80;;;8.50;99.90;;;;;;5095785;28;20067;-76
2023/01/13 07:48:43;;;;;;;0.50;0.50;;;8.50;99.90;;;;;;5095575;28;20036;-76
2023/01/13 07:51:10;;;;;;;0.80;0.70;;;8.40;99.90;;;;;;5095742;28;20032;-76
2023/01/13 07:53:36;;;;;;;1.65;0.63;;;8.40;99.90;;;;;;5098861;28;20749;-76
2023/01/13 07:56:03;;;;;;;0.75;0.63;;;8.40;99.90;;;;;;5092876;28;20039;-77
2023/01/13 07:58:29;;;;;;;1.88;0.80;;;8.50;99.90;;;;;;5092992;28;20031;-76
2023/01/13 08:00:55;;;;;;;0.70;0.70;;;8.50;99.90;;;;;;5091906;28;20056;-76
2023/01/13 08:03:22;;;;;;;0.47;0.40;;;8.50;99.90;;;;;;5095954;28;20019;-76
2023/01/13 08:05:47;;;;;;;1.10;0.80;;;8.50;99.90;;;;;;5098209;28;20036;-76
2023/01/13 08:08:13;;;;;;;1.02;0.60;;;8.50;99.90;;;;;;5095197;28;20033;-76
2023/01/13 08:10:39;;;;;;;1.50;0.70;;;8.60;99.90;;;;;;5098058;28;20035;-76
2023/01/13 08:13:16;;;;;;;0.55;0.55;;;8.60;99.90;;;;;;5095855;28;20484;-76
2023/01/13 08:15:42;;;;;;;0.60;0.60;;;8.60;99.90;;;;;;5092867;28;20045;-77
2023/01/13 08:18:08;;;;;;;0.60;0.60;;;8.60;99.90;;;;;;5098314;28;20016;-77
2023/01/13 08:20:33;;;;;;;1.98;0.70;;;8.60;99.90;;;;;;5088200;28;20093;-77
2023/01/13 08:22:59;;;;;;;0.68;0.60;;;8.60;99.90;;;;;;5092147;28;20052;-76
2023/01/13 08:25:27;;;;;;;1.75;0.50;;;8.70;99.90;;;;;;5093236;28;20037;-76
2023/01/13 08:27:53;;;;;;;0.50;0.50;;;8.70;99.90;;;;;;5091519;28;20786;-76
2023/01/13 08:30:19;;;;;;;4.72;0.70;;;8.70;99.90;;;;;;5095115;28;20115;-76
2023/01/13 08:32:46;;;;;;;0.73;0.73;;;8.80;99.90;;;;;;5095199;28;20508;-75
2023/01/13 08:35:11;;;;;;;1.73;0.63;;;8.80;99.90;;;;;;5086946;28;20043;-76
2023/01/13 08:37:37;;;;;;;0.98;0.60;;;8.80;99.90;;;;;;5092653;28;20048;-76
2023/01/13 08:40:04;;;;;;;2.05;0.50;;;8.80;99.90;;;;;;5094362;28;20039;-76
2023/01/13 08:42:30;;;;;;;0.90;0.82;;;8.80;99.90;;;;;;5086358;28;20063;-76
2023/01/13 08:44:56;;;;;;;0.57;0.57;;;8.90;99.90;;;;;;5094817;28;20029;-75
2023/01/13 08:47:22;;;;;;;0.60;0.60;;;8.80;99.90;;;;;;5092468;28;20028;-75
2023/01/13 08:49:48;;;;;;;0.50;0.50;;;8.80;99.90;;;;;;5086226;28;20052;-75
2023/01/13 08:52:13;;;;;;;0.52;0.52;;;8.90;99.90;;;;;;5089380;28;20063;-76
2023/01/13 08:54:39;;;;;;;0.73;0.65;;;8.90;99.90;;;;;;5095568;28;20035;-76
2023/01/13 08:57:05;;;;;;;0.80;0.80;;;8.90;99.90;;;;;;5091747;28;20041;-76
2023/01/13 08:59:32;;;;;;;1.85;0.50;;;8.90;99.90;;;;;;5088726;28;20052;-76
2023/01/13 09:01:57;;;;;;;0.73;0.73;;;8.90;99.90;;;;;;5088056;28;20205;-76
2023/01/13 09:04:26;;;;;;;1.17;0.88;;;8.90;99.90;;;;;;5084027;28;20044;-76
2023/01/13 09:06:52;;;;;;;;;;;9.00;99.90;;;;;;5090663;28;20049;-76
2023/01/13 09:09:18;;;;;;;0.50;0.50;;;9.00;99.90;;;;;;5087804;28;19912;-76
2023/01/13 09:14:34;;;;;;;0.50;0.50;;;9.00;99.90;;;;;;5086310;28;20032;-76
2023/01/13 09:17:00;;;;;;;0.73;0.70;;;9.00;99.90;;;;;;5092477;28;20093;-75
2023/01/13 09:19:27;;;;;;;2.28;0.50;;;9.00;99.90;;;;;;5089506;28;20060;-76
2023/01/13 09:21:53;;;;;;;0.30;0.30;;;9.10;99.90;;;;;;5090807;28;20032;-76
2023/01/13 09:24:19;;;;;;;0.82;0.82;;;9.20;99.90;;;;;;5086973;28;20032;-76
2023/01/13 09:26:45;;;;;;;1.20;0.70;;;9.30;99.90;;;;;;5089252;28;20096;-75
2023/01/13 09:29:11;;;;;;;0.60;0.60;;;9.20;99.90;;;;;;5090091;28;20035;-76
2023/01/13 09:31:37;;;;;;;2.78;1.10;;;9.30;99.90;;;;;;5090223;28;20068;-76
2023/01/13 09:36:49;;;;;;;2.85;0.80;;;9.30;99.90;;;;;;5087382;28;20066;-76
2023/01/13 09:39:15;;;;;;;1.75;0.52;;;9.40;99.90;;;;;;5083515;28;20024;-75
2023/01/13 09:44:56;;;;;;;1.48;0.70;;;9.40;99.90;;;;;;5090964;28;20054;-75
2023/01/13 09:47:32;;;;;;;1.25;0.60;;;9.50;99.90;;;;;;5084705;28;20036;-75
2023/01/13 09:50:17;;;;;;;0.60;0.60;;;9.50;99.90;;;;;;5091928;28;20064;-75
2023/01/13 09:52:42;;;;;;;1.13;0.43;;;9.50;99.90;;;;;;5086491;28;20033;-75
2023/01/13 09:55:14;;;;;;;0.77;0.60;;;9.70;99.90;;;;;;5082527;28;20039;-75
2023/01/13 09:57:40;;;;;;;0.40;0.40;;;9.80;99.90;;;;;;5092405;28;20030;-76
2023/01/13 10:00:11;;;;;;;0.60;0.60;;;9.80;99.90;;;;;;5081267;28;20064;-75
2023/01/13 10:03:00;;;;;;;0.77;0.77;;;9.80;99.90;;;;;;5089005;28;20035;-75
2023/01/13 10:05:35;;;;;;;1.85;0.77;;;9.70;99.90;;;;;;5076412;28;20074;-75
2023/01/13 10:08:16;;;;;;;0.43;0.43;;;9.70;99.90;;;;;;5076904;28;20054;-75
2023/01/13 10:10:49;;;;;;;0.50;0.50;;;9.70;99.90;;;;;;5083114;28;20036;-75
2023/01/13 10:13:28;;;;;;;0.60;0.60;;;9.70;99.90;;;;;;5086391;28;20040;-75
2023/01/13 10:15:56;;;;;;;1.15;0.82;;;9.70;99.90;;;;;;5089546;28;20044;-76
2023/01/13 10:18:40;;;;;;;2.10;0.60;;;9.80;99.90;;;;;;5088267;28;20103;-75
2023/01/13 10:21:42;;;;;;;0.52;0.52;;;9.80;99.90;;;;;;5086351;28;20028;-76
2023/01/13 10:24:49;;;;;;;0.82;0.70;;;9.80;99.90;;;;;;5088930;28;20062;-75
2023/01/13 10:27:27;;;;;;;0.75;0.70;;;10.00;99.90;;;;;;5031206;28;20054;-76
2023/01/13 10:29:53;;;;;;;1.55;0.60;;;10.00;99.90;;;;;;5044176;28;20029;-76
2023/01/13 10:32:19;;;;;;;0.77;0.70;;;10.00;99.90;;;;;;5070002;28;20066;-75
2023/01/13 10:34:49;;;;;;;1.27;0.70;;;10.00;99.90;;;;;;5085499;28;20033;-75
2023/01/13 10:37:26;;;;;;;0.80;0.75;;;9.90;99.90;;;;;;5085772;28;20028;-75
2023/01/13 10:39:56;;;;;;;0.47;0.47;;;9.80;99.90;;;;;;5077219;28;20082;-75
2023/01/13 10:42:22;;;;;;;0.45;0.45;;;9.80;99.90;;;;;;5076148;28;20032;-75
2023/01/13 10:44:53;;;;;;;0.68;0.68;;;9.80;99.90;;;;;;5076443;28;20150;-75
2023/01/13 10:47:38;;;;;;;0.65;0.65;;;9.80;99.90;;;;;;5083337;28;20032;-75
2023/01/13 10:50:12;;;;;;;0.30;0.30;;;9.70;99.90;;;;;;5079741;28;20098;-75
2023/01/13 10:52:42;;;;;;;1.35;0.70;;;9.80;99.90;;;;;;5077123;28;20051;-75
2023/01/13 10:55:32;;;;;;;1.05;0.70;;;9.80;99.90;;;;;;5076873;28;20032;-75
2023/01/13 10:58:12;;;;;;;0.50;0.50;;;9.80;99.90;;;;;;5072408;28;20075;-75
2023/01/13 11:00:38;;;;;;;0.60;0.57;;;9.80;99.90;;;;;;5076002;28;20044;-75
2023/01/13 11:03:17;;;;;;;0.93;0.52;;;9.90;99.90;;;;;;5074187;28;20886;-75
2023/01/13 11:05:50;;;;;;;2.67;0.90;;;9.90;99.90;;;;;;5081481;28;20024;-75
2023/01/13 11:08:18;;;;;;;0.50;0.50;;;9.90;99.90;;;;;;5075640;28;20021;-74
2023/01/13 11:10:47;;;;;;;2.28;0.90;;;10.00;99.90;;;;;;5067348;28;20045;-76
2023/01/13 11:13:20;;;;;;;0.45;0.40;;;10.00;99.90;;;;;;5079221;28;20048;-75
2023/01/13 11:15:54;;;;;;;1.52;0.90;;;10.00;99.90;;;;;;5077273;28;20036;-75
2023/01/13 11:19:00;;;;;;;1.13;0.80;;;10.10;99.90;;;;;;5078215;28;20032;-75
2023/01/13 11:21:59;;;;;;;0.85;0.85;;;10.00;99.90;;;;;;5074673;28;20033;-75
2023/01/13 11:24:41;;;;;;;1.52;0.50;;;9.90;99.90;;;;;;5070042;28;20071;-74
2023/01/13 11:27:25;;;;;;;1.23;0.63;;;10.00;99.90;;;;;;5081024;28;20028;-76
2023/01/13 11:30:01;;;;;;;1.48;0.60;;;9.90;99.90;;;;;;5075792;28;20057;-75
2023/01/13 11:32:32;;;;;;;0.47;0.47;;;9.90;99.90;;;;;;5070842;28;20071;-75
2023/01/13 11:35:08;;;;;;;2.42;0.30;;;9.90;99.90;;;;;;5077529;28;20061;-75
2023/01/13 11:37:40;;;;;;;0.32;0.32;;;9.90;99.90;;;;;;5080579;28;20032;-75
2023/01/13 11:40:20;;;;;;;0.60;0.60;;;10.00;99.90;;;;;;5075326;28;20035;-75
2023/01/13 11:42:53;;;;;;;0.88;0.88;;;10.10;99.90;;;;;;5077173;28;20044;-75
2023/01/13 11:45:41;;;;;;;2.63;0.60;;;10.10;99.90;;;;;;5077050;28;20039;-75
2023/01/13 11:48:14;;;;;;;1.23;0.60;;;10.20;99.90;;;;;;5076908;28;20039;-75
2023/01/13 11:50:46;;;;;;;0.50;0.50;;;10.30;99.90;;;;;;5083050;28;20100;-75
2023/01/13 11:53:29;;;;;;;0.35;0.35;;;10.20;99.90;;;;;;5081718;28;20044;-75
2023/01/13 11:56:01;;;;;;;0.30;0.30;;;10.30;99.90;;;;;;5076789;28;20032;-75
2023/01/13 11:58:40;;;;;;;0.40;0.40;;;10.30;99.90;;;;;;5078376;28;20576;-75
2023/01/13 12:01:21;;;;;;;0.70;0.50;;;10.40;99.90;;;;;;5074071;28;20052;-75
2023/01/13 12:04:06;;;;;;;0.28;0.28;;;10.40;99.90;;;;;;5080372;28;20037;-75
2023/01/13 12:06:38;;;;;;;0.32;0.32;;;10.40;99.90;;;;;;5077874;28;20101;-75
2023/01/13 12:09:13;;;;;;;0.40;0.40;;;10.40;99.90;;;;;;5081810;28;20046;-75
2023/01/13 12:15:14;;;;;;;0.30;0.30;;;10.30;99.90;;;;;;5086391;28;20039;-75
2023/01/13 12:17:58;;;;;;;0.40;0.40;;;10.50;99.90;;;;;;5103723;28;20024;-75
2023/01/13 12:20:36;;;;;;;0.35;0.30;;;10.70;99.90;;;;;;5079514;28;20135;-76
2023/01/13 12:23:06;;;;;;;0.43;0.32;;;10.60;99.90;;;;;;5080135;28;20031;-75
2023/01/13 12:25:56;;;;;;;0.63;0.60;;;10.60;99.90;;;;;;5081804;28;20037;-75
2023/01/13 12:28:30;;;;;;;0.40;0.40;;;10.50;99.90;;;;;;5072858;28;20484;-75
2023/01/13 12:31:01;;;;;;;0.57;0.50;;;10.40;99.90;;;;;;5081402;28;20049;-75
2023/01/13 12:33:44;;;;;;;0.65;0.40;;;10.40;99.90;;;;;;5084292;28;20050;-75
2023/01/13 12:36:17;;;;;;;0.40;0.40;;;10.30;99.90;;;;;;5080671;28;20501;-75
2023/01/13 12:38:55;;;;;;;0.40;0.40;;;10.30;99.90;;;;;;5087480;28;20029;-75
2023/01/13 12:44:15;;;;;;;0.40;0.40;;;10.30;99.90;;;;;;5084500;28;20032;-75
2023/01/13 12:44:23;;;;;;;0.30;0.30;;;10.20;99.90;;;;;;5083967;28;20048;-75
2023/01/13 12:46:54;;;;;;;0.30;0.30;;;10.20;99.90;;;;;;5076700;28;20047;-75
2023/01/13 12:49:20;;;;;;;0.30;0.30;;;10.20;99.90;;;;;;5081230;28;20024;-76
2023/01/13 12:51:55;;;;;;;0.40;0.40;;;10.30;99.90;;;;;;5088535;28;20064;-75
2023/01/13 12:54:29;;;;;;;0.45;0.45;;;10.30;99.90;;;;;;5079627;28;20034;-75
2023/01/13 12:56:57;;;;;;;0.32;0.32;;;10.40;99.90;;;;;;5083547;28;20036;-75
2023/01/13 12:59:22;;;;;;;0.50;0.50;;;10.40;99.90;;;;;;5085327;28;20096;-76
2023/01/13 13:02:07;;;;;;;0.35;0.35;;;10.50;99.90;;;;;;5083831;28;20060;-75
2023/01/13 13:04:48;;;;;;;0.70;0.70;;;10.50;99.90;;;;;;5087411;28;20111;-75
2023/01/13 13:07:22;;;;;;;0.98;0.40;;;10.40;99.90;;;;;;5088748;28;20025;-75
2023/01/13 13:10:15;;;;;;;0.20;0.20;;;10.00;97.80;;;;;;5090075;28;20060;-74
2023/01/13 13:15:27;;;;;;;0.30;0.30;;;8.00;99.90;;;;;;5070643;28;20067;-75
2023/01/13 13:17:59;;;;;;;0.57;0.25;;;7.50;99.90;;;;;;5071104;28;20139;-73
2023/01/13 13:20:54;;;;;;;0.30;0.30;;;7.10;99.90;;;;;;5067250;28;20516;-73
2023/01/13 13:23:32;;;;;;;0.30;0.30;;;6.80;99.90;;;;;;5067760;28;20021;-74
2023/01/13 13:26:06;;;;;;;0.40;0.40;;;6.70;99.90;;;;;;5073337;28;20101;-74
2023/01/13 13:28:40;;;;;;;0.30;0.30;;;6.50;99.90;;;;;;5076575;28;20032;-74
2023/01/13 13:31:37;;;;;;;0.40;0.40;;;6.50;99.90;;;;;;5071459;28;20039;-74
2023/01/13 13:34:33;;;;;;;0.45;0.45;;;6.50;99.90;;;;;;5071462;28;20044;-74
2023/01/13 13:37:09;;;;;;;0.40;0.40;;;6.20;99.90;;;;;;5068991;28;20048;-75
2023/01/13 13:48:19;;;;;;;0.40;0.40;;;6.00;99.90;;;;;;5081106;28;20043;-75
2023/01/13 13:50:59;;;;;;;0.60;0.60;;;5.90;99.90;;;;;;5091075;28;20038;-75
2023/01/13 13:53:34;;;;;;;0.30;0.30;;;5.90;99.90;;;;;;5080710;28;20036;-75
2023/01/13 13:56:02;;;;;;;0.45;0.45;;;5.90;99.90;;;;;;5079927;28;20109;-75
2023/01/13 13:58:32;;;;;;;0.52;0.52;;;5.90;99.90;;;;;;5075163;28;20028;-75
2023/01/13 14:00:59;;;;;;;2.28;0.70;;;5.90;99.90;;;;;;5078626;28;20052;-75
2023/01/13 14:03:29;;;;;;;2.90;1.25;;;5.90;99.90;;;;;;5065674;28;20032;-75
2023/01/13 14:06:06;;;;;;;0.52;0.50;;;5.90;99.90;;;;;;5089531;28;20040;-75
2023/01/13 14:08:35;;;;;;;1.17;0.50;;;5.90;99.90;;;;;;5080583;28;20028;-75
2023/01/13 14:11:00;;;;;;;0.50;0.50;;;5.90;99.90;;;;;;5058213;28;20036;-75
2023/01/13 14:13:28;;;;;;;0.45;0.45;;;6.00;99.90;;;;;;5084609;28;20146;-75
2023/01/13 14:16:05;;;;;;;0.50;0.50;;;6.10;99.90;;;;;;5082541;28;20088;-75
2023/01/13 14:18:43;;;;;;;1.23;1.13;;;6.20;99.90;;;;;;5074698;28;20040;-75